sensor_id;sensor_type;location;lat;lon;timestamp;pressure;altitude;pressure_sealevel;temperature;humidity
39267;BME280;24967;51.154;13.812;2023-05-11T00:00:46;99252.34;;;13.42;69.09
39267;BME280;24967;51.154;13.812;2023-05-11T00:03:12;99254.69;;;13.37;69.16
39267;BME280;24967;51.154;13.812;2023-05-11T00:05:40;99261.56;;;13.31;68.71
39267;BME280;24967;51.154;13.812;2023-05-11T00:08:07;99254.94;;;13.27;68.75
39267;BME280;24967;51.154;13.812;2023-05-11T00:10:33;99256.94;;;13.25;69.29
39267;BME280;24967;51.154;13.812;2023-05-11T00:13:00;99248.75;;;13.26;69.04
39267;BME280;24967;51.154;13.812;2023-05-11T00:15:26;99257.91;;;13.24;69.39
39267;BME280;24967;51.154;13.812;2023-05-11T00:17:52;99257.25;;;13.22;69.22
39267;BME280;24967;51.154;13.812;2023-05-11T00:20:19;99255.94;;;13.18;69.04
39267;BME280;24967;51.154;13.812;2023-05-11T00:22:48;99258.59;;;13.18;69.48
39267;BME280;24967;51.154;13.812;2023-05-11T00:25:15;99250.94;;;13.15;68.90
39267;BME280;24967;51.154;13.812;2023-05-11T00:27:41;99257.81;;;13.09;69.19
39267;BME280;24967;51.154;13.812;2023-05-11T00:30:10;99249.31;;;13.05;69.07
39267;BME280;24967;51.154;13.812;2023-05-11T00:32:37;99249.47;;;13.04;68.91
39267;BME280;24967;51.154;13.812;2023-05-11T00:35:04;99250.84;;;13.00;69.01
39267;BME280;24967;51.154;13.812;2023-05-11T00:37:31;99243.72;;;12.92;68.83
39267;BME280;24967;51.154;13.812;2023-05-11T00:39:58;99247.72;;;12.88;69.09
39267;BME280;24967;51.154;13.812;2023-05-11T00:42:25;99248.06;;;12.85;68.99
39267;BME280;24967;51.154;13.812;2023-05-11T00:44:51;99245.78;;;12.74;69.19
39267;BME280;24967;51.154;13.812;2023-05-11T00:47:18;99243.47;;;12.63;69.53
39267;BME280;24967;51.154;13.812;2023-05-11T00:49:44;99250.66;;;12.62;69.46
39267;BME280;24967;51.154;13.812;2023-05-11T00:52:11;99247.13;;;12.61;69.66
39267;BME280;24967;51.154;13.812;2023-05-11T00:54:38;99249.78;;;12.61;69.73
39267;BME280;24967;51.154;13.812;2023-05-11T00:57:07;99249.34;;;12.50;70.14
39267;BME280;24967;51.154;13.812;2023-05-11T00:59:34;99253.81;;;12.49;69.82
39267;BME280;24967;51.154;13.812;2023-05-11T01:02:01;99253.69;;;12.43;69.51
39267;BME280;24967;51.154;13.812;2023-05-11T01:04:28;99256.53;;;12.33;69.20
39267;BME280;24967;51.154;13.812;2023-05-11T01:07:08;99256.53;;;12.33;69.56
39267;BME280;24967;51.154;13.812;2023-05-11T01:09:45;99257.53;;;12.24;70.09
39267;BME280;24967;51.154;13.812;2023-05-11T01:12:24;99251.53;;;12.22;70.35
39267;BME280;24967;51.154;13.812;2023-05-11T01:15:03;99250.38;;;12.24;70.60
39267;BME280;24967;51.154;13.812;2023-05-11T01:17:36;99247.03;;;12.22;70.50
39267;BME280;24967;51.154;13.812;2023-05-11T01:20:09;99246.38;;;12.20;70.07
39267;BME280;24967;51.154;13.812;2023-05-11T01:22:47;99247.22;;;12.21;69.92
39267;BME280;24967;51.154;13.812;2023-05-11T01:25:30;99250.72;;;12.21;70.19
39267;BME280;24967;51.154;13.812;2023-05-11T01:28:19;99245.38;;;12.21;69.99
39267;BME280;24967;51.154;13.812;2023-05-11T01:30:50;99245.72;;;12.18;70.06
39267;BME280;24967;51.154;13.812;2023-05-11T01:33:23;99246.22;;;12.13;69.89
39267;BME280;24967;51.154;13.812;2023-05-11T01:35:52;99240.38;;;12.10;69.91
39267;BME280;24967;51.154;13.812;2023-05-11T01:38:23;99247.06;;;12.06;70.20
39267;BME280;24967;51.154;13.812;2023-05-11T01:40:53;99253.06;;;12.08;70.66
39267;BME280;24967;51.154;13.812;2023-05-11T01:43:23;99257.72;;;12.06;70.23
39267;BME280;24967;51.154;13.812;2023-05-11T01:45:54;99259.69;;;12.04;70.45
39267;BME280;24967;51.154;13.812;2023-05-11T01:48:24;99256.41;;;12.02;70.36
39267;BME280;24967;51.154;13.812;2023-05-11T01:50:55;99245.88;;;12.00;70.65
39267;BME280;24967;51.154;13.812;2023-05-11T01:53:26;99254.41;;;11.96;70.39
39267;BME280;24967;51.154;13.812;2023-05-11T01:55:54;99254.88;;;11.91;70.88
39267;BME280;24967;51.154;13.812;2023-05-11T01:58:23;99256.03;;;11.88;70.50
39267;BME280;24967;51.154;13.812;2023-05-11T02:00:52;99256.88;;;11.89;70.74
39267;BME280;24967;51.154;13.812;2023-05-11T02:03:20;99258.56;;;11.90;70.76
39267;BME280;24967;51.154;13.812;2023-05-11T02:05:48;99263.88;;;11.90;70.73
39267;BME280;24967;51.154;13.812;2023-05-11T02:08:17;99263.19;;;11.88;70.65
39267;BME280;24967;51.154;13.812;2023-05-11T02:10:45;99254.84;;;11.75;69.99
39267;BME280;24967;51.154;13.812;2023-05-11T02:13:14;99253.69;;;11.77;70.03
39267;BME280;24967;51.154;13.812;2023-05-11T02:15:43;99249.66;;;11.73;70.01
39267;BME280;24967;51.154;13.812;2023-05-11T02:18:13;99253.34;;;11.72;69.84
39267;BME280;24967;51.154;13.812;2023-05-11T02:20:42;99260.66;;;11.70;69.86
39267;BME280;24967;51.154;13.812;2023-05-11T02:23:10;99259.81;;;11.69;70.10
39267;BME280;24967;51.154;13.812;2023-05-11T02:25:38;99260.66;;;11.62;70.02
39267;BME280;24967;51.154;13.812;2023-05-11T02:28:06;99256.97;;;11.55;69.92
39267;BME280;24967;51.154;13.812;2023-05-11T02:30:37;99257.28;;;11.52;70.08
39267;BME280;24967;51.154;13.812;2023-05-11T02:33:05;99260.28;;;11.49;70.13
39267;BME280;24967;51.154;13.812;2023-05-11T02:35:36;99250.16;;;11.44;70.19
39267;BME280;24967;51.154;13.812;2023-05-11T02:38:04;99252.94;;;11.42;70.15
39267;BME280;24967;51.154;13.812;2023-05-11T02:40:33;99253.28;;;11.39;70.31
39267;BME280;24967;51.154;13.812;2023-05-11T02:43:07;99256.63;;;11.41;70.45
39267;BME280;24967;51.154;13.812;2023-05-11T02:45:35;99253.13;;;11.41;70.43
39267;BME280;24967;51.154;13.812;2023-05-11T02:48:06;99253.59;;;11.36;70.47
39267;BME280;24967;51.154;13.812;2023-05-11T02:50:38;99253.09;;;11.33;70.46
39267;BME280;24967;51.154;13.812;2023-05-11T02:53:08;99251.25;;;11.25;70.54
39267;BME280;24967;51.154;13.812;2023-05-11T02:55:37;99260.41;;;11.22;70.71
39267;BME280;24967;51.154;13.812;2023-05-11T02:58:04;99256.22;;;11.20;71.01
39267;BME280;24967;51.154;13.812;2023-05-11T03:00:30;99256.19;;;11.12;71.22
39267;BME280;24967;51.154;13.812;2023-05-11T03:02:57;99254.53;;;11.11;71.15
39267;BME280;24967;51.154;13.812;2023-05-11T03:05:23;99261.31;;;11.05;71.38
39267;BME280;24967;51.154;13.812;2023-05-11T03:07:52;99258.84;;;11.12;71.41
39267;BME280;24967;51.154;13.812;2023-05-11T03:10:23;99263.31;;;11.03;71.48
39267;BME280;24967;51.154;13.812;2023-05-11T03:12:50;99265.97;;;11.03;71.62
39267;BME280;24967;51.154;13.812;2023-05-11T03:15:17;99272.63;;;11.07;71.45
39267;BME280;24967;51.154;13.812;2023-05-11T03:17:45;99270.28;;;11.04;71.36
39267;BME280;24967;51.154;13.812;2023-05-11T03:20:12;99265.13;;;11.03;71.60
39267;BME280;24967;51.154;13.812;2023-05-11T03:22:40;99264.13;;;11.04;71.48
39267;BME280;24967;51.154;13.812;2023-05-11T03:25:10;99264.97;;;11.04;71.61
39267;BME280;24967;51.154;13.812;2023-05-11T03:27:38;99253.34;;;11.05;71.73
39267;BME280;24967;51.154;13.812;2023-05-11T03:30:08;99262.31;;;11.04;72.28
39267;BME280;24967;51.154;13.812;2023-05-11T03:32:35;99263.31;;;11.03;72.50
39267;BME280;24967;51.154;13.812;2023-05-11T03:35:01;99257.31;;;11.01;72.73
39267;BME280;24967;51.154;13.812;2023-05-11T03:37:29;99265.13;;;11.03;72.86
39267;BME280;24967;51.154;13.812;2023-05-11T03:39:58;99262.63;;;11.01;72.82
39267;BME280;24967;51.154;13.812;2023-05-11T03:42:28;99255.81;;;10.98;73.09
39267;BME280;24967;51.154;13.812;2023-05-11T03:44:56;99253.81;;;11.00;72.96
39267;BME280;24967;51.154;13.812;2023-05-11T03:47:25;99266.41;;;10.90;72.08
39267;BME280;24967;51.154;13.812;2023-05-11T03:49:52;99263.88;;;10.81;71.22
39267;BME280;24967;51.154;13.812;2023-05-11T03:52:19;99269.34;;;10.79;71.16
39267;BME280;24967;51.154;13.812;2023-05-11T03:54:46;99267.50;;;10.71;70.77
39267;BME280;24967;51.154;13.812;2023-05-11T03:57:13;99264.16;;;10.69;70.97
39267;BME280;24967;51.154;13.812;2023-05-11T03:59:41;99272.63;;;10.73;71.36
39267;BME280;24967;51.154;13.812;2023-05-11T04:02:07;99262.00;;;10.73;71.50
39267;BME280;24967;51.154;13.812;2023-05-11T04:04:34;99269.41;;;10.61;72.86
39267;BME280;24967;51.154;13.812;2023-05-11T04:07:00;99267.69;;;10.52;74.53
39267;BME280;24967;51.154;13.812;2023-05-11T04:09:27;99264.91;;;10.53;74.93
39267;BME280;24967;51.154;13.812;2023-05-11T04:11:54;99265.78;;;10.62;75.26
39267;BME280;24967;51.154;13.812;2023-05-11T04:14:20;99265.25;;;10.59;76.37
39267;BME280;24967;51.154;13.812;2023-05-11T04:16:48;99265.47;;;10.65;76.84
39267;BME280;24967;51.154;13.812;2023-05-11T04:19:14;99257.31;;;10.67;76.91
39267;BME280;24967;51.154;13.812;2023-05-11T04:21:41;99263.84;;;10.72;78.12
39267;BME280;24967;51.154;13.812;2023-05-11T04:24:08;99264.19;;;10.77;79.25
39267;BME280;24967;51.154;13.812;2023-05-11T04:26:34;99258.91;;;10.86;82.32
39267;BME280;24967;51.154;13.812;2023-05-11T04:29:00;99261.97;;;10.99;83.43
39267;BME280;24967;51.154;13.812;2023-05-11T04:31:27;99267.69;;;11.20;83.58
39267;BME280;24967;51.154;13.812;2023-05-11T04:33:55;99265.78;;;11.47;82.78
39267;BME280;24967;51.154;13.812;2023-05-11T04:36:22;99260.16;;;11.66;82.00
39267;BME280;24967;51.154;13.812;2023-05-11T04:38:49;99264.84;;;11.89;80.10
39267;BME280;24967;51.154;13.812;2023-05-11T04:41:17;99262.88;;;12.07;79.27
39267;BME280;24967;51.154;13.812;2023-05-11T04:43:43;99264.53;;;12.25;78.67
39267;BME280;24967;51.154;13.812;2023-05-11T04:46:10;99269.03;;;12.32;77.15
39267;BME280;24967;51.154;13.812;2023-05-11T04:48:36;99270.16;;;12.54;77.60
39267;BME280;24967;51.154;13.812;2023-05-11T04:51:04;99267.63;;;12.69;76.28
39267;BME280;24967;51.154;13.812;2023-05-11T04:53:31;99275.94;;;12.74;74.81
39267;BME280;24967;51.154;13.812;2023-05-11T04:55:57;99274.38;;;12.96;75.11
39267;BME280;24967;51.154;13.812;2023-05-11T04:58:24;99283.09;;;13.21;73.90
39267;BME280;24967;51.154;13.812;2023-05-11T05:00:50;99282.63;;;13.26;73.66
39267;BME280;24967;51.154;13.812;2023-05-11T05:03:17;99276.03;;;13.45;73.64
39267;BME280;24967;51.154;13.812;2023-05-11T05:05:43;99275.66;;;13.48;72.76
39267;BME280;24967;51.154;13.812;2023-05-11T05:08:11;99276.34;;;13.73;72.43
39267;BME280;24967;51.154;13.812;2023-05-11T05:10:37;99285.59;;;13.85;72.62
39267;BME280;24967;51.154;13.812;2023-05-11T05:13:04;99282.75;;;14.10;71.72
39267;BME280;24967;51.154;13.812;2023-05-11T05:15:30;99281.97;;;14.24;71.58
39267;BME280;24967;51.154;13.812;2023-05-11T05:17:57;99282.56;;;14.72;71.57
39267;BME280;24967;51.154;13.812;2023-05-11T05:20:23;99276.09;;;15.11;67.60
39267;BME280;24967;51.154;13.812;2023-05-11T05:22:50;99280.22;;;15.79;65.78
39267;BME280;24967;51.154;13.812;2023-05-11T05:25:18;99272.56;;;16.19;62.90
39267;BME280;24967;51.154;13.812;2023-05-11T05:27:45;99286.09;;;16.89;61.27
39267;BME280;24967;51.154;13.812;2023-05-11T05:30:12;99281.03;;;17.55;59.34
39267;BME280;24967;51.154;13.812;2023-05-11T05:32:38;99287.25;;;17.69;56.91
39267;BME280;24967;51.154;13.812;2023-05-11T05:35:05;99286.94;;;18.05;56.56
39267;BME280;24967;51.154;13.812;2023-05-11T05:37:32;99292.34;;;18.25;56.85
39267;BME280;24967;51.154;13.812;2023-05-11T05:39:58;99282.81;;;18.36;55.07
39267;BME280;24967;51.154;13.812;2023-05-11T05:42:26;99296.06;;;18.58;55.02
39267;BME280;24967;51.154;13.812;2023-05-11T05:44:52;99298.94;;;18.69;54.79
39267;BME280;24967;51.154;13.812;2023-05-11T05:47:18;99292.13;;;18.60;53.55
39267;BME280;24967;51.154;13.812;2023-05-11T05:49:45;99302.88;;;18.27;54.29
39267;BME280;24967;51.154;13.812;2023-05-11T05:52:11;99298.16;;;18.49;54.88
39267;BME280;24967;51.154;13.812;2023-05-11T05:54:38;99300.19;;;18.67;53.89
39267;BME280;24967;51.154;13.812;2023-05-11T05:57:04;99305.81;;;18.59;53.25
39267;BME280;24967;51.154;13.812;2023-05-11T05:59:32;99300.63;;;18.50;52.79
39267;BME280;24967;51.154;13.812;2023-05-11T06:01:59;99305.38;;;18.48;52.46
39267;BME280;24967;51.154;13.812;2023-05-11T06:04:25;99296.88;;;18.98;53.26
39267;BME280;24967;51.154;13.812;2023-05-11T06:06:52;99298.75;;;18.84;52.32
39267;BME280;24967;51.154;13.812;2023-05-11T06:09:19;99305.38;;;18.68;52.78
39267;BME280;24967;51.154;13.812;2023-05-11T06:11:46;99306.94;;;19.22;53.12
39267;BME280;24967;51.154;13.812;2023-05-11T06:14:12;99307.22;;;19.66;51.39
39267;BME280;24967;51.154;13.812;2023-05-11T06:16:40;99301.75;;;19.79;49.82
39267;BME280;24967;51.154;13.812;2023-05-11T06:19:07;99300.63;;;19.94;50.11
39267;BME280;24967;51.154;13.812;2023-05-11T06:21:33;99300.75;;;20.37;50.67
39267;BME280;24967;51.154;13.812;2023-05-11T06:24:00;99296.03;;;20.57;48.99
39267;BME280;24967;51.154;13.812;2023-05-11T06:26:27;99309.13;;;20.79;48.11
39267;BME280;24967;51.154;13.812;2023-05-11T06:28:53;99302.91;;;20.53;48.78
39267;BME280;24967;51.154;13.812;2023-05-11T06:31:20;99297.09;;;20.50;48.20
39267;BME280;24967;51.154;13.812;2023-05-11T06:33:49;99295.13;;;20.39;48.20
39267;BME280;24967;51.154;13.812;2023-05-11T06:36:16;99306.91;;;20.69;48.94
39267;BME280;24967;51.154;13.812;2023-05-11T06:38:42;99307.44;;;21.03;47.91
39267;BME280;24967;51.154;13.812;2023-05-11T06:41:09;99301.00;;;21.41;47.94
39267;BME280;24967;51.154;13.812;2023-05-11T06:43:35;99306.91;;;21.68;46.42
39267;BME280;24967;51.154;13.812;2023-05-11T06:46:02;99300.16;;;21.89;46.23
39267;BME280;24967;51.154;13.812;2023-05-11T06:48:28;99297.50;;;22.01;46.50
39267;BME280;24967;51.154;13.812;2023-05-11T06:50:56;99294.03;;;21.93;45.19
39267;BME280;24967;51.154;13.812;2023-05-11T06:53:23;99297.44;;;21.89;45.44
39267;BME280;24967;51.154;13.812;2023-05-11T06:55:49;99298.00;;;21.49;46.18
39267;BME280;24967;51.154;13.812;2023-05-11T06:58:16;99298.75;;;21.38;46.23
39267;BME280;24967;51.154;13.812;2023-05-11T07:00:44;99286.78;;;21.09;46.26
39267;BME280;24967;51.154;13.812;2023-05-11T07:03:11;99287.84;;;21.08;47.15
39267;BME280;24967;51.154;13.812;2023-05-11T07:05:37;99295.41;;;20.99;47.87
39267;BME280;24967;51.154;13.812;2023-05-11T07:08:05;99295.84;;;20.96;47.10
39267;BME280;24967;51.154;13.812;2023-05-11T07:10:32;99291.63;;;20.81;48.03
39267;BME280;24967;51.154;13.812;2023-05-11T07:12:58;99294.50;;;20.87;48.57
39267;BME280;24967;51.154;13.812;2023-05-11T07:15:24;99290.06;;;20.74;47.55
39267;BME280;24967;51.154;13.812;2023-05-11T07:17:51;99292.53;;;20.50;47.27
39267;BME280;24967;51.154;13.812;2023-05-11T07:20:17;99293.09;;;20.59;48.82
39267;BME280;24967;51.154;13.812;2023-05-11T07:22:44;99300.13;;;20.67;48.02
39267;BME280;24967;51.154;13.812;2023-05-11T07:25:11;99301.25;;;20.77;49.66
39267;BME280;24967;51.154;13.812;2023-05-11T07:27:38;99305.25;;;21.12;49.16
39267;BME280;24967;51.154;13.812;2023-05-11T07:30:05;99303.44;;;21.05;47.63
39267;BME280;24967;51.154;13.812;2023-05-11T07:32:33;99302.50;;;21.00;47.17
39267;BME280;24967;51.154;13.812;2023-05-11T07:34:59;99302.22;;;20.83;46.95
39267;BME280;24967;51.154;13.812;2023-05-11T07:37:25;99302.63;;;20.36;47.06
39267;BME280;24967;51.154;13.812;2023-05-11T07:39:52;99306.97;;;20.38;48.08
39267;BME280;24967;51.154;13.812;2023-05-11T07:42:20;99309.78;;;20.49;47.75
39267;BME280;24967;51.154;13.812;2023-05-11T07:44:46;99300.25;;;20.47;47.19
39267;BME280;24967;51.154;13.812;2023-05-11T07:47:13;99310.03;;;20.16;48.51
39267;BME280;24967;51.154;13.812;2023-05-11T07:49:39;99308.75;;;19.87;48.56
39267;BME280;24967;51.154;13.812;2023-05-11T07:52:06;99306.69;;;19.89;50.17
39267;BME280;24967;51.154;13.812;2023-05-11T07:54:32;99308.41;;;20.08;49.43
39267;BME280;24967;51.154;13.812;2023-05-11T07:57:00;99307.38;;;20.09;49.59
39267;BME280;24967;51.154;13.812;2023-05-11T07:59:29;99312.75;;;19.78;50.25
39267;BME280;24967;51.154;13.812;2023-05-11T08:01:56;99317.91;;;19.86;50.27
39267;BME280;24967;51.154;13.812;2023-05-11T08:04:22;99315.63;;;20.21;49.58
39267;BME280;24967;51.154;13.812;2023-05-11T08:06:49;99313.63;;;20.35;48.08
39267;BME280;24967;51.154;13.812;2023-05-11T08:09:15;99320.22;;;20.71;49.48
39267;BME280;24967;51.154;13.812;2023-05-11T08:11:41;99326.72;;;20.88;48.54
39267;BME280;24967;51.154;13.812;2023-05-11T08:14:08;99318.53;;;21.13;47.62
39267;BME280;24967;51.154;13.812;2023-05-11T08:16:36;99321.16;;;21.20;47.84
39267;BME280;24967;51.154;13.812;2023-05-11T08:19:02;99319.22;;;21.27;46.94
39267;BME280;24967;51.154;13.812;2023-05-11T08:21:29;99322.44;;;21.54;48.23
39267;BME280;24967;51.154;13.812;2023-05-11T08:23:57;99315.13;;;21.91;47.06
39267;BME280;24967;51.154;13.812;2023-05-11T08:26:23;99321.25;;;21.99;45.40
39267;BME280;24967;51.154;13.812;2023-05-11T08:28:50;99324.28;;;21.90;44.82
39267;BME280;24967;51.154;13.812;2023-05-11T08:31:17;99321.00;;;21.88;45.62
39267;BME280;24967;51.154;13.812;2023-05-11T08:33:45;99324.03;;;21.62;45.23
39267;BME280;24967;51.154;13.812;2023-05-11T08:36:11;99319.84;;;21.47;44.80
39267;BME280;24967;51.154;13.812;2023-05-11T08:38:38;99316.03;;;21.37;45.86
39267;BME280;24967;51.154;13.812;2023-05-11T08:41:05;99316.91;;;21.31;45.87
39267;BME280;24967;51.154;13.812;2023-05-11T08:43:33;99322.25;;;21.37;45.73
39267;BME280;24967;51.154;13.812;2023-05-11T08:46:03;99320.44;;;21.49;44.83
39267;BME280;24967;51.154;13.812;2023-05-11T08:48:31;99321.00;;;21.40;44.33
39267;BME280;24967;51.154;13.812;2023-05-11T08:50:59;99319.78;;;21.36;45.08
39267;BME280;24967;51.154;13.812;2023-05-11T08:53:26;99324.03;;;21.62;45.45
39267;BME280;24967;51.154;13.812;2023-05-11T08:55:54;99316.94;;;21.79;45.06
39267;BME280;24967;51.154;13.812;2023-05-11T08:58:22;99316.78;;;22.04;45.15
39267;BME280;24967;51.154;13.812;2023-05-11T09:00:49;99318.19;;;22.25;45.55
39267;BME280;24967;51.154;13.812;2023-05-11T09:03:16;99316.69;;;22.41;43.43
39267;BME280;24967;51.154;13.812;2023-05-11T09:05:45;99318.34;;;22.66;44.10
39267;BME280;24967;51.154;13.812;2023-05-11T09:08:14;99316.34;;;22.61;42.33
39267;BME280;24967;51.154;13.812;2023-05-11T09:10:42;99316.94;;;22.63;43.46
39267;BME280;24967;51.154;13.812;2023-05-11T09:13:09;99311.97;;;22.36;44.19
39267;BME280;24967;51.154;13.812;2023-05-11T09:15:36;99315.06;;;22.63;43.29
39267;BME280;24967;51.154;13.812;2023-05-11T09:18:03;99307.97;;;22.62;42.32
39267;BME280;24967;51.154;13.812;2023-05-11T09:20:30;99316.13;;;22.86;42.71
39267;BME280;24967;51.154;13.812;2023-05-11T09:22:57;99310.81;;;23.15;42.65
39267;BME280;24967;51.154;13.812;2023-05-11T09:25:25;99309.94;;;23.38;43.24
39267;BME280;24967;51.154;13.812;2023-05-11T09:27:56;99305.56;;;23.48;42.06
39267;BME280;24967;51.154;13.812;2023-05-11T09:30:24;99307.78;;;23.63;42.37
39267;BME280;24967;51.154;13.812;2023-05-11T09:32:52;99315.94;;;23.51;42.66
39267;BME280;24967;51.154;13.812;2023-05-11T09:35:20;99317.09;;;23.15;41.71
39267;BME280;24967;51.154;13.812;2023-05-11T09:37:56;99305.91;;;23.00;42.94
39267;BME280;24967;51.154;13.812;2023-05-11T09:40:24;99310.56;;;22.93;42.59
39267;BME280;24967;51.154;13.812;2023-05-11T09:42:50;99304.34;;;23.16;41.97
39267;BME280;24967;51.154;13.812;2023-05-11T09:45:35;99297.19;;;23.50;41.20
39267;BME280;24967;51.154;13.812;2023-05-11T09:48:02;99296.53;;;23.71;40.26
39267;BME280;24967;51.154;13.812;2023-05-11T09:50:31;99297.84;;;23.97;40.82
39267;BME280;24967;51.154;13.812;2023-05-11T09:52:58;99302.75;;;23.43;38.02
39267;BME280;24967;51.154;13.812;2023-05-11T09:55:26;99306.72;;;23.00;38.96
39267;BME280;24967;51.154;13.812;2023-05-11T09:57:54;99298.44;;;22.72;39.65
39267;BME280;24967;51.154;13.812;2023-05-11T10:00:21;99303.66;;;22.85;39.83
39267;BME280;24967;51.154;13.812;2023-05-11T10:02:58;99299.63;;;22.64;40.80
39267;BME280;24967;51.154;13.812;2023-05-11T10:05:24;99292.63;;;22.33;39.82
39267;BME280;24967;51.154;13.812;2023-05-11T10:07:55;99299.25;;;22.72;40.41
39267;BME280;24967;51.154;13.812;2023-05-11T10:10:22;99306.22;;;23.27;39.67
39267;BME280;24967;51.154;13.812;2023-05-11T10:12:50;99299.63;;;23.63;38.49
39267;BME280;24967;51.154;13.812;2023-05-11T10:15:18;99291.13;;;23.19;38.99
39267;BME280;24967;51.154;13.812;2023-05-11T10:17:46;99292.84;;;23.49;39.27
39267;BME280;24967;51.154;13.812;2023-05-11T10:20:13;99281.94;;;23.61;37.16
39267;BME280;24967;51.154;13.812;2023-05-11T10:22:40;99290.47;;;23.81;37.42
39267;BME280;24967;51.154;13.812;2023-05-11T10:25:08;99287.63;;;23.88;36.09
39267;BME280;24967;51.154;13.812;2023-05-11T10:27:35;99297.72;;;23.75;33.45
39267;BME280;24967;51.154;13.812;2023-05-11T10:30:06;99296.81;;;23.58;34.26
39267;BME280;24967;51.154;13.812;2023-05-11T10:32:35;99294.94;;;23.87;35.67
39267;BME280;24967;51.154;13.812;2023-05-11T10:35:02;99303.28;;;23.97;34.56
39267;BME280;24967;51.154;13.812;2023-05-11T10:37:31;99289.00;;;23.90;33.96
39267;BME280;24967;51.154;13.812;2023-05-11T10:39:58;99284.59;;;23.44;36.21
39267;BME280;24967;51.154;13.812;2023-05-11T10:43:03;99285.84;;;22.89;34.54
39267;BME280;24967;51.154;13.812;2023-05-11T10:45:43;99290.78;;;22.57;37.15
39267;BME280;24967;51.154;13.812;2023-05-11T10:48:34;99297.53;;;23.01;36.44
39267;BME280;24967;51.154;13.812;2023-05-11T10:51:17;99289.97;;;23.55;36.48
39267;BME280;24967;51.154;13.812;2023-05-11T10:54:09;99287.97;;;23.11;35.19
39267;BME280;24967;51.154;13.812;2023-05-11T10:56:51;99297.75;;;22.76;36.28
39267;BME280;24967;51.154;13.812;2023-05-11T11:00:00;99290.56;;;22.94;35.69
39267;BME280;24967;51.154;13.812;2023-05-11T11:02:35;99287.03;;;22.81;35.73
39267;BME280;24967;51.154;13.812;2023-05-11T11:05:03;99288.28;;;23.26;37.06
39267;BME280;24967;51.154;13.812;2023-05-11T11:07:57;99295.03;;;23.92;35.54
39267;BME280;24967;51.154;13.812;2023-05-11T11:10:32;99294.66;;;23.72;35.55
39267;BME280;24967;51.154;13.812;2023-05-11T11:13:04;99293.19;;;24.10;37.52
39267;BME280;24967;51.154;13.812;2023-05-11T11:16:08;99286.22;;;24.48;34.87
39267;BME280;24967;51.154;13.812;2023-05-11T11:18:37;99288.03;;;24.76;36.10
39267;BME280;24967;51.154;13.812;2023-05-11T11:21:04;99285.81;;;24.73;34.96
39267;BME280;24967;51.154;13.812;2023-05-11T11:23:40;99290.34;;;23.88;34.56
39267;BME280;24967;51.154;13.812;2023-05-11T11:26:07;99291.50;;;23.63;35.72
39267;BME280;24967;51.154;13.812;2023-05-11T11:29:07;99302.84;;;23.89;35.46
39267;BME280;24967;51.154;13.812;2023-05-11T11:31:34;99302.59;;;23.50;34.98
39267;BME280;24967;51.154;13.812;2023-05-11T11:34:33;99302.59;;;23.50;36.23
39267;BME280;24967;51.154;13.812;2023-05-11T11:37:05;99308.28;;;23.48;35.57
39267;BME280;24967;51.154;13.812;2023-05-11T11:39:59;99299.72;;;23.28;37.16
39267;BME280;24967;51.154;13.812;2023-05-11T11:42:35;99305.47;;;23.43;37.54
39267;BME280;24967;51.154;13.812;2023-05-11T11:45:28;99301.97;;;23.60;36.82
39267;BME280;24967;51.154;13.812;2023-05-11T11:48:12;99303.66;;;23.89;37.27
39267;BME280;24967;51.154;13.812;2023-05-11T11:50:42;99301.53;;;23.91;35.93
39267;BME280;24967;51.154;13.812;2023-05-11T11:53:10;99295.91;;;24.10;36.49
39267;BME280;24967;51.154;13.812;2023-05-11T11:55:50;99292.25;;;24.04;35.71
39267;BME280;24967;51.154;13.812;2023-05-11T12:01:21;99290.97;;;23.78;36.13
39267;BME280;24967;51.154;13.812;2023-05-11T12:06:43;99297.63;;;23.70;37.09
39267;BME280;24967;51.154;13.812;2023-05-11T12:09:16;99302.47;;;23.97;38.16
39267;BME280;24967;51.154;13.812;2023-05-11T12:11:44;99307.69;;;23.87;38.04
39267;BME280;24967;51.154;13.812;2023-05-11T12:14:11;99313.31;;;23.97;38.55
39267;BME280;24967;51.154;13.812;2023-05-11T12:16:38;99305.66;;;23.94;37.58
39267;BME280;24967;51.154;13.812;2023-05-11T12:19:04;99311.91;;;23.94;36.13
39267;BME280;24967;51.154;13.812;2023-05-11T12:21:31;99313.19;;;24.20;36.30
39267;BME280;24967;51.154;13.812;2023-05-11T12:23:59;99311.81;;;23.89;37.54
39267;BME280;24967;51.154;13.812;2023-05-11T12:26:27;99317.22;;;23.72;37.11
39267;BME280;24967;51.154;13.812;2023-05-11T12:29:06;99319.47;;;23.52;38.09
39267;BME280;24967;51.154;13.812;2023-05-11T12:31:34;99323.00;;;23.52;37.71
39267;BME280;24967;51.154;13.812;2023-05-11T12:34:01;99317.22;;;23.72;36.91
39267;BME280;24967;51.154;13.812;2023-05-11T12:36:28;99314.28;;;23.91;36.77
39267;BME280;24967;51.154;13.812;2023-05-11T12:38:56;99311.09;;;24.11;37.67
39267;BME280;24967;51.154;13.812;2023-05-11T12:41:23;99319.09;;;24.00;36.94
39267;BME280;24967;51.154;13.812;2023-05-11T12:43:51;99310.94;;;24.00;36.75
39267;BME280;24967;51.154;13.812;2023-05-11T12:46:18;99323.66;;;23.31;36.75
39267;BME280;24967;51.154;13.812;2023-05-11T12:48:46;99322.88;;;22.95;36.47
39267;BME280;24967;51.154;13.812;2023-05-11T12:51:13;99322.00;;;22.71;37.99
39267;BME280;24967;51.154;13.812;2023-05-11T12:53:39;99316.47;;;22.66;37.85
39267;BME280;24967;51.154;13.812;2023-05-11T12:56:06;99313.06;;;22.71;38.36
39267;BME280;24967;51.154;13.812;2023-05-11T12:58:38;99330.13;;;22.59;38.35
39267;BME280;24967;51.154;13.812;2023-05-11T13:01:06;99328.94;;;22.55;39.76
39267;BME280;24967;51.154;13.812;2023-05-11T13:03:33;99326.13;;;22.62;38.93
39267;BME280;24967;51.154;13.812;2023-05-11T13:06:04;99316.00;;;22.69;38.90